This is the latest recevied weather packets stored in our database for station/object W3TMB. If no packets are shown the sender has not sent any weather packets the latest 10 day(s).
| Time | Temp. | Humidity | Pressure | Rain* | Wind** | Luminosity | Snow |
|---|---|---|---|---|---|---|---|
| 1777904246 | 15.56° C | 52% | 1009.5 hPa | 0 mm | - | 693 W/m² | - |
| 1777903943 | 15.56° C | 51% | 1009.7 hPa | 0 mm | - | 663 W/m² | - |
| 1777903640 | 14.44° C | 56% | 1009.5 hPa | 0 mm | - | 627 W/m² | - |
| 1777903335 | 13.89° C | 56% | 1009.6 hPa | 0 mm | - | 582 W/m² | - |
| 1777903032 | 12.78° C | 60% | 1009.7 hPa | 0 mm | - | 596 W/m² | - |
| 1777902729 | 13.33° C | 61% | 1009.8 hPa | 0 mm | - | 627 W/m² | - |
| 1777902426 | 13.33° C | 59% | 1009.8 hPa | 0 mm | - | 561 W/m² | - |
| 1777902122 | 12.78° C | 62% | 1010 hPa | 0 mm | - | 514 W/m² | - |
| 1777901821 | 12.78° C | 62% | 1009.9 hPa | 0 mm | - | 512 W/m² | - |
| 1777901518 | 11.11° C | 66% | 1010 hPa | 0 mm | - | 495 W/m² | - |
| 1777901215 | 11.67° C | 64% | 1010 hPa | 0 mm | - | 471 W/m² | - |
| 1777900913 | 11.67° C | 65% | 1009.9 hPa | 0 mm | - | 467 W/m² | - |
| 1777900610 | 11.11° C | 68% | 1010.1 hPa | 0 mm | - | 463 W/m² | - |
| 1777900307 | 10.56° C | 68% | 1010.4 hPa | 0 mm | - | 343 W/m² | - |
| 1777900004 | 10° C | 70% | 1010.3 hPa | 0 mm | - | 379 W/m² | - |
| 1777899700 | 9.44° C | 73% | 1010.3 hPa | 0 mm | - | 360 W/m² | - |
| 1777899398 | 9.44° C | 71% | 1010.5 hPa | 0 mm | - | 199 W/m² | - |
| 1777899095 | 8.89° C | 75% | 1010.4 hPa | 0 mm | - | 177 W/m² | - |
| 1777898792 | 10° C | 70% | 1010.3 hPa | 0 mm | - | 310 W/m² | - |
| 1777898490 | 9.44° C | 71% | 1010.2 hPa | 0 mm | - | 291 W/m² | - |
| 1777898187 | 8.89° C | 73% | 1010.3 hPa | 0 mm | - | 102 W/m² | - |
| 1777897885 | 8.89° C | 73% | 1010.3 hPa | 0 mm | - | 256 W/m² | - |
| 1777897581 | 8.33° C | 74% | 1009.9 hPa | 0 mm | - | 268 W/m² | - |
| 1777897276 | 7.22° C | 76% | 1010.2 hPa | 0 mm | - | 219 W/m² | - |
| 1777896972 | 6.67° C | 78% | 1010.1 hPa | 0 mm | - | 226 W/m² | - |
* Rain latest hour (hover to see other rain measurements)
** Current wind speed in m/s (hover to see current wind gust speed)